createdAt,value
2018-07-05T00:00:57.664Z,73.40
2018-07-05T00:03:35.966Z,71.10
2018-07-05T00:06:13.028Z,71.50
2018-07-05T00:11:22.814Z,57.80
2018-07-05T00:16:33.063Z,53.20
2018-07-05T00:19:10.427Z,54.50
2018-07-05T00:21:48.326Z,53.20
2018-07-05T00:26:58.347Z,51.80
2018-07-05T00:29:35.587Z,49.00
2018-07-05T00:32:13.104Z,48.00
2018-07-05T00:34:51.432Z,47.00
2018-07-05T00:37:29.140Z,48.30
2018-07-05T00:40:06.452Z,49.30
2018-07-05T00:42:43.655Z,51.20
2018-07-05T00:45:20.870Z,52.40
2018-07-05T00:47:58.035Z,53.50
2018-07-05T00:50:35.419Z,54.20
2018-07-05T00:53:13.452Z,54.50
2018-07-05T00:55:50.640Z,52.80
2018-07-05T00:58:29.133Z,51.10
2018-07-05T01:01:06.238Z,51.20
2018-07-05T01:03:43.549Z,51.70
2018-07-05T01:06:20.742Z,52.80
2018-07-05T01:08:58.024Z,54.40
2018-07-05T01:11:35.262Z,54.60
2018-07-05T01:14:12.559Z,55.90
2018-07-05T01:16:51.867Z,57.00
2018-07-05T01:19:29.146Z,58.10
2018-07-05T01:22:06.595Z,59.60
2018-07-05T01:24:43.742Z,61.70
2018-07-05T01:27:25.143Z,63.90
2018-07-05T01:30:02.732Z,65.60
2018-07-05T01:32:40.932Z,67.40
2018-07-05T01:35:18.735Z,67.70
2018-07-05T01:37:55.948Z,68.60
2018-07-05T01:40:33.424Z,69.60
2018-07-05T01:43:11.213Z,71.00
2018-07-05T01:45:48.421Z,71.10
2018-07-05T01:48:25.841Z,73.20
2018-07-05T01:51:03.776Z,74.30
2018-07-05T01:53:41.100Z,73.30
2018-07-05T01:56:18.374Z,72.60
2018-07-05T01:58:55.674Z,72.10
2018-07-05T02:01:32.931Z,71.20
2018-07-05T02:04:10.153Z,70.90
2018-07-05T02:06:47.644Z,71.40
2018-07-05T02:09:25.130Z,71.60
2018-07-05T02:12:02.335Z,73.30
2018-07-05T02:14:39.793Z,73.60
2018-07-05T02:17:17.924Z,74.10
2018-07-05T02:19:55.088Z,74.10
2018-07-05T02:22:32.266Z,75.70
2018-07-05T02:25:09.409Z,76.50
2018-07-05T02:27:46.656Z,76.70
2018-07-05T02:30:23.944Z,76.80
2018-07-05T02:33:01.323Z,76.60
2018-07-05T02:35:39.494Z,78.00
2018-07-05T02:38:21.183Z,80.20
2018-07-05T02:40:59.031Z,83.40
2018-07-05T02:43:36.715Z,85.80
2018-07-05T02:46:13.921Z,88.20
2018-07-05T02:48:51.081Z,89.60
2018-07-05T02:51:28.291Z,90.40
2018-07-05T02:54:05.491Z,90.80
2018-07-05T02:56:42.655Z,90.70
2018-07-05T02:59:20.517Z,91.20
2018-07-05T03:01:57.719Z,92.10
2018-07-05T03:04:34.904Z,93.10
2018-07-05T03:07:12.268Z,93.70
2018-07-05T03:09:49.444Z,94.00
2018-07-05T03:12:26.645Z,94.70
2018-07-05T03:15:04.256Z,95.60
2018-07-05T03:17:41.417Z,96.40
2018-07-05T03:20:18.667Z,96.60
2018-07-05T03:22:55.953Z,96.60
2018-07-05T03:25:33.067Z,96.60
2018-07-05T03:28:10.478Z,97.00
2018-07-05T03:30:49.162Z,97.30
2018-07-05T03:33:26.631Z,97.80
2018-07-05T03:36:03.914Z,98.20
2018-07-05T03:38:41.362Z,98.40
2018-07-05T03:41:18.804Z,98.50
2018-07-05T03:43:56.013Z,98.40
2018-07-05T03:46:33.241Z,98.80
2018-07-05T03:49:11.170Z,98.50
2018-07-05T03:51:48.342Z,98.40
2018-07-05T03:54:27.228Z,98.30
2018-07-05T03:57:04.969Z,98.20
2018-07-05T03:59:43.601Z,97.90
2018-07-05T04:02:20.794Z,97.80
2018-07-05T04:05:00.421Z,97.10
2018-07-05T04:07:37.909Z,96.70
2018-07-05T04:10:16.446Z,96.00
2018-07-05T04:12:53.607Z,95.10
2018-07-05T04:15:30.909Z,94.60
2018-07-05T04:18:08.171Z,93.00
2018-07-05T04:20:45.396Z,91.40
2018-07-05T04:23:22.561Z,90.50
2018-07-05T04:26:00.438Z,85.60
2018-07-05T04:28:38.646Z,80.70
2018-07-05T04:31:17.535Z,76.90
2018-07-05T04:33:55.116Z,73.60
2018-07-05T04:36:32.606Z,73.50
2018-07-05T04:39:10.603Z,73.60
2018-07-05T04:41:48.066Z,67.00
2018-07-05T04:44:26.274Z,61.60
2018-07-05T04:47:03.863Z,58.70
2018-07-05T04:49:41.972Z,52.10
2018-07-05T04:52:19.272Z,46.70
2018-07-05T04:54:56.590Z,41.10
2018-07-05T04:57:33.992Z,39.80
2018-07-05T05:00:11.582Z,41.30
2018-07-05T05:02:49.496Z,39.00
2018-07-05T05:05:26.815Z,38.70
2018-07-05T05:08:04.239Z,38.10
2018-07-05T05:10:41.438Z,39.90
2018-07-05T05:13:18.626Z,39.80
2018-07-05T05:15:56.183Z,37.00
2018-07-05T05:18:33.988Z,34.00
2018-07-05T05:21:11.456Z,32.90
2018-07-05T05:23:48.928Z,32.00
2018-07-05T05:26:26.416Z,30.20
2018-07-05T05:29:03.608Z,30.90
2018-07-05T05:31:41.089Z,29.00
2018-07-05T05:34:18.756Z,28.00
2018-07-05T05:36:56.228Z,28.10
2018-07-05T05:39:33.425Z,29.50
2018-07-05T05:42:10.665Z,32.00
2018-07-05T05:44:48.038Z,29.50
2018-07-05T05:47:25.210Z,27.00
2018-07-05T05:50:03.228Z,27.70
2018-07-05T05:52:40.511Z,29.10
2018-07-05T05:55:17.836Z,32.70
2018-07-05T05:57:55.812Z,36.50
2018-07-05T06:00:33.209Z,36.80
2018-07-05T06:03:10.478Z,37.40
2018-07-05T06:05:48.492Z,38.80
2018-07-05T06:08:26.135Z,40.40
2018-07-05T06:11:04.028Z,41.00
2018-07-05T06:13:41.219Z,42.30
2018-07-05T06:16:18.665Z,41.70
2018-07-05T06:18:55.847Z,41.30
2018-07-05T06:21:33.362Z,40.70
2018-07-05T06:24:10.713Z,41.40
2018-07-05T06:26:48.117Z,41.50
2018-07-05T06:29:25.291Z,41.70
2018-07-05T06:32:02.947Z,42.60
2018-07-05T06:34:41.187Z,42.70
2018-07-05T06:37:18.392Z,42.40
2018-07-05T06:39:55.653Z,45.80
2018-07-05T06:42:32.864Z,46.40
2018-07-05T06:45:10.154Z,46.30
2018-07-05T06:47:47.377Z,49.10
2018-07-05T06:50:24.577Z,49.70
2018-07-05T06:53:01.847Z,48.10
2018-07-05T06:55:38.986Z,47.70
2018-07-05T06:58:16.177Z,46.50
2018-07-05T07:00:53.350Z,45.80
2018-07-05T07:03:30.745Z,43.30
2018-07-05T07:06:07.960Z,40.30
2018-07-05T07:08:45.163Z,37.20
2018-07-05T07:11:22.311Z,34.90
2018-07-05T07:13:59.482Z,31.90
2018-07-05T07:16:36.653Z,30.00
2018-07-05T07:19:14.070Z,30.00
2018-07-05T07:21:51.458Z,31.60
2018-07-05T07:24:28.792Z,31.70
2018-07-05T07:27:06.658Z,32.50
2018-07-05T07:29:44.315Z,32.30
2018-07-05T07:32:21.893Z,32.70
2018-07-05T07:34:59.271Z,34.20
2018-07-05T07:37:36.645Z,35.50
2018-07-05T07:40:14.064Z,34.80
2018-07-05T07:45:15.172Z,35.00
2018-07-05T07:47:43.708Z,33.70
2018-07-05T07:50:11.124Z,32.60
2018-07-05T07:52:38.369Z,29.80
2018-07-05T07:55:05.919Z,28.20
2018-07-05T07:57:33.552Z,26.70
2018-07-05T08:00:01.732Z,25.80
2018-07-05T08:02:29.596Z,25.60
2018-07-05T08:04:56.930Z,26.00
2018-07-05T08:09:57.765Z,25.50
2018-07-05T08:12:25.101Z,22.60
2018-07-05T08:14:52.699Z,21.50
2018-07-05T08:17:21.108Z,20.50
2018-07-05T08:19:48.631Z,18.80
2018-07-05T08:22:16.414Z,18.50
2018-07-05T08:24:44.665Z,17.10
2018-07-05T08:27:12.226Z,16.30
2018-07-05T08:29:39.778Z,16.80
2018-07-05T08:32:08.148Z,17.30
2018-07-05T08:34:36.809Z,18.00
2018-07-05T08:37:04.910Z,16.50
2018-07-05T08:39:32.692Z,15.00
2018-07-05T08:42:04.977Z,14.00
2018-07-05T08:44:32.252Z,13.00
2018-07-05T08:46:59.569Z,11.80
2018-07-05T08:49:27.269Z,11.20
2018-07-05T08:51:55.355Z,10.40
2018-07-05T08:54:22.910Z,10.00
2018-07-05T08:56:50.881Z,10.60
2018-07-05T08:59:18.342Z,11.50
2018-07-05T09:01:45.944Z,10.40
2018-07-05T09:04:13.250Z,11.30
2018-07-05T09:06:41.003Z,9.50
2018-07-05T09:09:14.881Z,8.30
2018-07-05T09:11:42.284Z,7.80
2018-07-05T09:14:10.153Z,6.70
2018-07-05T09:16:37.474Z,5.10
2018-07-05T09:19:05.775Z,5.20
2018-07-05T09:21:33.110Z,4.80
2018-07-05T09:24:01.133Z,6.50
2018-07-05T09:26:29.149Z,5.50
2018-07-05T09:28:56.798Z,3.70
2018-07-05T09:31:24.379Z,4.00
2018-07-05T09:33:53.993Z,3.50
2018-07-05T09:36:21.726Z,3.80
2018-07-05T09:38:49.174Z,5.20
2018-07-05T09:41:16.488Z,4.30
2018-07-05T09:46:11.381Z,3.90
2018-07-05T09:48:39.618Z,5.80
2018-07-05T09:51:06.944Z,6.20
2018-07-05T09:53:35.043Z,3.70
2018-07-05T09:56:02.472Z,3.40
2018-07-05T09:58:29.847Z,1.50
2018-07-05T10:00:57.187Z,1.00
2018-07-05T10:03:24.623Z,1.20
2018-07-05T10:05:52.085Z,1.00
2018-07-05T10:08:19.803Z,1.50
2018-07-05T10:10:52.426Z,1.00
2018-07-05T10:13:21.887Z,1.00
2018-07-05T10:15:50.308Z,1.00
2018-07-05T10:18:17.951Z,1.00
2018-07-05T10:20:45.925Z,1.00
2018-07-05T10:23:14.432Z,1.00
2018-07-05T10:25:42.007Z,2.00
2018-07-05T10:28:12.210Z,1.70
2018-07-05T10:30:49.610Z,1.00
2018-07-05T10:33:29.540Z,1.00
2018-07-05T10:35:57.251Z,1.00
2018-07-05T10:38:24.661Z,1.00
2018-07-05T10:41:03.473Z,1.00
2018-07-05T10:43:41.109Z,1.00
2018-07-05T10:46:18.272Z,1.10
2018-07-05T10:48:55.443Z,1.10
2018-07-05T10:54:05.110Z,3.50
2018-07-05T10:56:44.159Z,3.90
2018-07-05T10:59:23.003Z,2.90
2018-07-05T11:02:01.416Z,3.20
2018-07-05T11:04:39.437Z,3.50
2018-07-05T11:07:19.019Z,3.30
2018-07-05T11:09:56.351Z,3.40
2018-07-05T11:12:34.035Z,2.70
2018-07-05T11:15:11.202Z,3.60
2018-07-05T11:17:49.944Z,4.20
2018-07-05T11:20:27.118Z,4.00
2018-07-05T11:23:04.983Z,3.10
2018-07-05T11:25:42.590Z,2.50
2018-07-05T11:28:19.820Z,4.10
2018-07-05T11:30:57.641Z,4.80
2018-07-05T11:33:35.126Z,5.90
2018-07-05T11:36:14.230Z,6.50
2018-07-05T11:38:51.538Z,7.40
2018-07-05T11:41:29.239Z,7.80
2018-07-05T11:44:06.596Z,9.40
2018-07-05T11:46:44.625Z,9.30
2018-07-05T11:49:22.707Z,9.00
2018-07-05T11:51:59.988Z,8.80
2018-07-05T11:54:38.819Z,8.30
2018-07-05T11:57:16.262Z,8.90
2018-07-05T11:59:53.563Z,9.50
2018-07-05T12:02:31.231Z,10.10
2018-07-05T12:05:09.165Z,10.00
2018-07-05T12:07:46.431Z,9.90
2018-07-05T12:10:24.333Z,10.20
2018-07-05T12:13:01.801Z,10.80
2018-07-05T12:15:40.323Z,11.20
2018-07-05T12:18:18.197Z,11.00
2018-07-05T12:20:56.194Z,10.50
2018-07-05T12:23:33.759Z,10.30
2018-07-05T12:26:11.344Z,9.70
2018-07-05T12:28:49.761Z,9.20
2018-07-05T12:31:27.531Z,7.70
2018-07-05T12:34:06.371Z,6.50
2018-07-05T12:36:43.810Z,6.50
2018-07-05T12:39:22.373Z,7.10
2018-07-05T12:41:59.524Z,6.60
2018-07-05T12:44:36.908Z,5.10
2018-07-05T12:47:14.519Z,4.60
2018-07-05T12:49:51.897Z,3.80
2018-07-05T12:52:30.510Z,3.40
2018-07-05T12:55:09.694Z,3.60
2018-07-05T12:57:47.329Z,4.50
2018-07-05T13:00:24.677Z,4.40
2018-07-05T13:03:02.178Z,5.00
2018-07-05T13:05:40.125Z,4.50
2018-07-05T13:08:17.585Z,4.50
2018-07-05T13:10:56.217Z,4.30
2018-07-05T13:13:33.429Z,5.50
2018-07-05T13:16:11.965Z,5.50
2018-07-05T13:18:49.219Z,5.00
2018-07-05T13:21:27.177Z,5.90
2018-07-05T13:24:04.627Z,5.60
2018-07-05T13:26:42.009Z,4.30
2018-07-05T13:29:19.200Z,4.20
2018-07-05T13:31:56.585Z,2.90
2018-07-05T13:34:35.464Z,4.00
2018-07-05T13:37:14.428Z,3.60
2018-07-05T13:39:51.865Z,2.30
2018-07-05T13:42:29.305Z,2.20
2018-07-05T13:45:07.594Z,1.90
2018-07-05T13:47:45.380Z,3.40
2018-07-05T13:50:23.228Z,3.40
2018-07-05T13:53:00.834Z,4.10
2018-07-05T13:55:38.122Z,3.90
2018-07-05T13:58:15.776Z,3.50
2018-07-05T14:00:53.921Z,3.50
2018-07-05T14:03:32.092Z,4.30
2018-07-05T14:06:10.006Z,4.20
2018-07-05T14:08:47.389Z,4.50
2018-07-05T14:11:24.841Z,5.00
2018-07-05T14:14:01.997Z,5.50
2018-07-05T14:16:39.607Z,5.50
2018-07-05T14:21:49.992Z,7.40
2018-07-05T14:24:27.573Z,7.60
2018-07-05T14:27:05.145Z,7.80
2018-07-05T14:29:42.659Z,7.90
2018-07-05T14:32:20.924Z,7.70
2018-07-05T14:34:58.691Z,7.90
2018-07-05T14:37:36.769Z,8.90
2018-07-05T14:40:17.187Z,8.90
2018-07-05T14:42:55.837Z,8.60
2018-07-05T14:45:33.220Z,9.00
2018-07-05T14:48:11.195Z,9.70
2018-07-05T14:50:48.695Z,9.80
2018-07-05T14:53:25.904Z,9.60
2018-07-05T14:56:04.385Z,9.50
2018-07-05T14:58:41.853Z,9.50
2018-07-05T15:01:20.346Z,9.70
2018-07-05T15:03:57.995Z,10.00
2018-07-05T15:06:35.210Z,10.80
2018-07-05T15:09:12.702Z,10.80
2018-07-05T15:11:50.103Z,11.50
2018-07-05T15:14:27.868Z,11.40
2018-07-05T15:17:05.523Z,11.40
2018-07-05T15:19:43.607Z,10.70
2018-07-05T15:22:21.498Z,15.40
2018-07-05T15:24:58.705Z,19.70
2018-07-05T15:27:36.006Z,22.50
2018-07-05T15:30:13.988Z,23.50
2018-07-05T15:32:51.685Z,24.20
2018-07-05T15:35:29.649Z,24.50
2018-07-05T15:38:08.194Z,25.00
2018-07-05T15:40:47.250Z,25.10
2018-07-05T15:43:25.630Z,24.40
2018-07-05T15:46:02.787Z,24.20
2018-07-05T15:48:41.332Z,24.00
2018-07-05T15:51:18.756Z,23.70
2018-07-05T15:53:55.933Z,22.70
2018-07-05T15:56:33.580Z,22.60
2018-07-05T15:59:10.800Z,21.80
2018-07-05T16:01:49.159Z,20.70
2018-07-05T16:04:28.224Z,18.40
2018-07-05T16:07:05.697Z,19.20
2018-07-05T16:09:43.761Z,16.80
2018-07-05T16:12:21.495Z,12.40
2018-07-05T16:14:59.301Z,7.40
2018-07-05T16:17:37.560Z,7.70
2018-07-05T16:20:14.865Z,6.80
2018-07-05T16:22:52.035Z,7.00
2018-07-05T16:25:29.367Z,6.90
2018-07-05T16:28:06.444Z,6.90
2018-07-05T16:33:18.624Z,7.60
2018-07-05T16:35:56.928Z,7.70
2018-07-05T16:38:37.102Z,7.70
2018-07-05T16:41:14.401Z,7.40
2018-07-05T16:43:51.712Z,8.70
2018-07-05T16:46:28.850Z,7.80
2018-07-05T16:49:07.284Z,8.40
2018-07-05T16:51:44.545Z,7.80
2018-07-05T16:54:22.577Z,8.10
2018-07-05T16:57:01.187Z,7.50
2018-07-05T16:59:38.746Z,7.70
2018-07-05T17:02:15.970Z,7.30
2018-07-05T17:04:53.244Z,8.10
2018-07-05T17:07:30.576Z,8.10
2018-07-05T17:12:40.328Z,7.70
2018-07-05T17:15:17.485Z,7.50
2018-07-05T17:17:54.894Z,7.00
2018-07-05T17:20:33.018Z,6.80
2018-07-05T17:23:10.268Z,6.60
2018-07-05T17:28:20.478Z,6.90
2018-07-05T17:30:58.453Z,7.30
2018-07-05T17:33:36.445Z,8.00
2018-07-05T17:36:15.373Z,8.20
2018-07-05T17:38:53.267Z,8.40
2018-07-05T17:41:30.572Z,8.10
2018-07-05T17:44:07.819Z,8.00
2018-07-05T17:46:45.033Z,8.00
2018-07-05T17:49:22.324Z,8.10
2018-07-05T17:54:32.393Z,8.20
2018-07-05T17:57:09.685Z,8.60
2018-07-05T17:59:46.979Z,9.20
2018-07-05T18:02:24.328Z,9.80
2018-07-05T18:05:01.836Z,10.50
2018-07-05T18:07:39.392Z,11.10
2018-07-05T18:10:18.831Z,11.00
2018-07-05T18:12:56.057Z,11.10
2018-07-05T18:15:33.366Z,11.60
2018-07-05T18:18:10.541Z,12.10
2018-07-05T18:20:49.008Z,12.70
2018-07-05T18:23:26.258Z,12.30
2018-07-05T18:26:03.563Z,12.70
2018-07-05T18:28:40.825Z,12.60
2018-07-05T18:31:18.319Z,12.40
2018-07-05T18:33:55.787Z,12.80
2018-07-05T18:36:32.994Z,13.70
2018-07-05T18:39:10.175Z,15.00
2018-07-05T18:41:47.442Z,15.60
2018-07-05T18:44:25.063Z,16.20
2018-07-05T18:47:02.405Z,16.40
2018-07-05T18:49:39.639Z,16.50
2018-07-05T18:52:17.123Z,16.30
2018-07-05T18:54:54.585Z,16.50
2018-07-05T18:57:31.811Z,16.60
2018-07-05T19:00:09.087Z,16.30
2018-07-05T19:02:46.313Z,16.30
2018-07-05T19:05:23.591Z,16.40
2018-07-05T19:08:00.800Z,16.60
2018-07-05T19:10:37.977Z,16.10
2018-07-05T19:13:15.232Z,16.40
2018-07-05T19:15:53.392Z,16.70
2018-07-05T19:18:31.385Z,16.70
2018-07-05T19:21:10.203Z,17.30
2018-07-05T19:23:47.505Z,17.70
2018-07-05T19:26:25.039Z,18.50
2018-07-05T19:29:02.794Z,18.40
2018-07-05T19:31:43.808Z,19.00
2018-07-05T19:34:22.924Z,19.40
2018-07-05T19:37:00.960Z,20.50
2018-07-05T19:39:38.751Z,20.40
2018-07-05T19:42:16.165Z,20.80
2018-07-05T19:47:26.777Z,21.80
2018-07-05T19:50:04.660Z,22.30
2018-07-05T19:52:42.580Z,23.00
2018-07-05T19:55:20.121Z,23.50
2018-07-05T19:57:57.443Z,24.20
2018-07-05T20:00:35.056Z,25.30
2018-07-05T20:03:12.516Z,26.10
2018-07-05T20:05:50.183Z,26.10
2018-07-05T20:08:27.892Z,27.10
2018-07-05T20:11:05.213Z,27.90
2018-07-05T20:13:42.496Z,28.60
2018-07-05T20:16:19.721Z,29.30
2018-07-05T20:18:57.250Z,29.90
2018-07-05T20:21:34.525Z,30.60
2018-07-05T20:26:44.188Z,32.40
2018-07-05T20:29:21.488Z,33.20
2018-07-05T20:31:58.757Z,34.30
2018-07-05T20:34:37.391Z,34.80
2018-07-05T20:37:14.718Z,36.00
2018-07-05T20:39:51.953Z,37.30
2018-07-05T20:42:29.222Z,38.20
2018-07-05T20:45:06.494Z,38.60
2018-07-05T20:47:44.033Z,39.60
2018-07-05T20:50:21.420Z,40.00
2018-07-05T20:52:58.696Z,41.50
2018-07-05T20:55:35.831Z,42.00
2018-07-05T20:58:13.847Z,42.60
2018-07-05T21:00:51.097Z,43.10
2018-07-05T21:03:28.573Z,44.60
2018-07-05T21:06:05.795Z,44.50
2018-07-05T21:08:47.465Z,44.50
2018-07-05T21:11:26.471Z,45.30
2018-07-05T21:14:10.240Z,46.50
2018-07-05T21:16:50.305Z,47.20
2018-07-05T21:19:29.454Z,47.10
2018-07-05T21:22:06.988Z,47.60
2018-07-05T21:24:44.198Z,48.80
2018-07-05T21:27:21.452Z,48.80
2018-07-05T21:29:58.876Z,50.10
2018-07-05T21:32:36.405Z,50.70
2018-07-05T21:35:13.983Z,51.20
2018-07-05T21:37:51.925Z,51.10
2018-07-05T21:40:29.232Z,51.40
2018-07-05T21:43:07.030Z,52.20
2018-07-05T21:45:44.219Z,53.60
2018-07-05T21:48:21.474Z,54.00
2018-07-05T21:50:58.672Z,55.90
2018-07-05T21:53:36.183Z,57.30
2018-07-05T21:56:13.384Z,59.10
2018-07-05T21:58:51.422Z,61.50
2018-07-05T22:01:28.894Z,63.60
2018-07-05T22:04:06.527Z,63.60
2018-07-05T22:06:43.855Z,65.30
2018-07-05T22:09:21.197Z,68.10
2018-07-05T22:11:58.387Z,70.50
2018-07-05T22:14:35.697Z,72.80
2018-07-05T22:17:17.034Z,73.80
2018-07-05T22:19:58.354Z,76.80
2018-07-05T22:22:39.761Z,78.90
2018-07-05T22:25:21.153Z,79.80
2018-07-05T22:28:02.469Z,80.70
2018-07-05T22:30:44.038Z,82.10
2018-07-05T22:33:21.918Z,84.90
2018-07-05T22:35:59.489Z,86.30
2018-07-05T22:38:36.666Z,87.10
2018-07-05T22:41:13.930Z,88.40
2018-07-05T22:43:51.071Z,90.50
2018-07-05T22:46:28.384Z,90.70
2018-07-05T22:49:05.520Z,90.70
2018-07-05T22:51:42.801Z,91.70
2018-07-05T22:54:20.142Z,92.10
2018-07-05T22:56:58.151Z,92.70
2018-07-05T22:59:35.376Z,93.10
2018-07-05T23:02:12.628Z,94.70
2018-07-05T23:04:50.565Z,95.40
2018-07-05T23:07:27.816Z,95.50
2018-07-05T23:10:04.990Z,95.30
2018-07-05T23:12:42.165Z,95.20
2018-07-05T23:15:19.367Z,95.40
2018-07-05T23:17:56.498Z,96.00
2018-07-05T23:20:33.758Z,96.60
2018-07-05T23:23:11.071Z,96.90
2018-07-05T23:25:48.356Z,96.90
2018-07-05T23:28:25.764Z,97.10
2018-07-05T23:31:03.309Z,97.40
2018-07-05T23:33:40.609Z,97.70
2018-07-05T23:36:18.156Z,98.30
2018-07-05T23:38:56.278Z,97.80
2018-07-05T23:41:33.636Z,98.40
2018-07-05T23:44:10.921Z,98.80
2018-07-05T23:46:48.112Z,99.20
2018-07-05T23:49:25.369Z,99.50
2018-07-05T23:52:02.545Z,99.30
2018-07-05T23:54:39.711Z,99.10
2018-07-05T23:57:16.940Z,98.90
2018-07-05T23:59:54.111Z,99.10
